Springfield, VT

12:41 PM EDT on September 05, 2015 (GMT -0400)
Gassetts / North Springfield | | Change Station
CLOSE
Current Station
Personal Weather Station
Location: Chester, VT
Elevation: 594 ft
Nearby Weather Stations

Elev 594 ft 43.34 °N, 72.55 °W | Updated 3 seconds ago

Clear
Clear
82.9 °F
Feels Like 85 °F
N
6.9
Wind Variable Wind from North
Gusts 6.9 mph

Today
High -- | Low -- °F
--% Chance of Precip.
Yesterday
High -- | Low -- °F
Precip. -- in
6:18 AM 7:18 PM
Waning Gibbous, 47% visible
Pressure 30.27 in
Visibility 10.0 miles
Clouds Clear
Heat Index 85 °F
Dew Point 67 °F
Humidity 58%
Rainfall 0.00 in
Snow Depth Not available.
UV 8 out of 12
Pollen 7.30 out of 12
Air Quality Not available.
Flu Activity Not available.
METAR KVSF 051554Z AUTO VRB06KT 10SM CLR 23/14 A3027 RMK AO2 SLP251 T02330144
Pressure 30.27 in
Visibility 10.0 miles
Clouds Clear
Heat Index 85 °F
Dew Point 67 °F
Humidity 58%
Rainfall 0.00 in
Snow Depth Not available.
UV 8 out of 12
Pollen 7.30 out of 12
Air Quality Not available.
Flu Activity Not available.
METAR KVSF 051554Z AUTO VRB06KT 10SM CLR 23/14 A3027 RMK AO2 SLP251 T02330144

10-Day Weather Forecast

×

Almanac

Astronomy

Sep. 05, 2015 Rise Set
Actual Time
Civil Twilight
Nautical Twilight
Astronomical Twilight
Moon
Length of Visible Light
Length of Day
Tomorrow will be .
, % of the Moon is Illuminated

Today's Extremes

State Highs State Lows

Community

WunderPhotos

Upload Photos

1,852,498 photos uploaded!

WunderBlogs® & News

Nearby

Air Quality

  Air Quality AQ Index Pollutant
Not available.

Snow Depth

Station Depth Elevation

Earthquake Activity

City Distance Mag. Time & Date
Minimum magnitude displayed is 2.5.

Coastal Water Temperatures

Place Temperature

Stations

Nearby Weather Stations

Station Location Temp. Windchill Dew Point Humidity Wind Precip. Elev Updated Type